Terminal Aerodrome Forecast
Issued by NWS

Home | Current Version | Previous Version | Text Only | Print | Product List | Glossary On
Versions: 1 2 3 4 5 6 7 8 9 10 11 12 13 14 15 16
000
FTUS43 KGLD 091739
TAFMCK
TAF
KMCK 091739Z 0918/1018 17010KT P6SM BKN080
     FM100000 VRB04KT P6SM BKN045
     FM101000 08006KT 6SM BR OVC025
     FM101400 15006KT 5SM BR OVC015=

USA.gov is the U.S. government's official web portal to all federal, state and local government web resources and services.